Arthur, Nevada
Current Conditions -  °F | °C
As of 2:15 AM on Wednesday 26 Nov 2014 (Local Time) from KENV Reporting Station
Clear Clear  
Wind Chill:   Ceiling: Unl
Heat Index:   Visibility: 10mi
Dew Point: -2°   Wind: 3mph
Humidity: 65%   Direction: 210°SSW
Pressure: 30.35"   Gusts: NA
Location:  41.0114°N, 114.57°W
Report Text: KENV 261015Z AUTO 21003KT 10SM CLR 04/M02 A3035 RMK AO1
Loading
Personal Weather Stations






























Interactive Weather Map New forecast layout! Learn more

10-Day Weather Forecast

Advertisements
Track Severe Weather on mobile